createdAt,value
2019-01-28T00:00:35.884Z,98698.66
2019-01-28T00:01:47.556Z,98708.02
2019-01-28T00:02:52.388Z,98700.80
2019-01-28T00:03:57.842Z,98703.79
2019-01-28T00:05:03.008Z,98705.05
2019-01-28T00:06:07.996Z,98705.47
2019-01-28T00:07:12.767Z,98697.40
2019-01-28T00:08:17.679Z,98700.36
2019-01-28T00:09:22.736Z,98708.03
2019-01-28T00:10:27.947Z,98700.82
2019-01-28T00:11:33.106Z,98697.82
2019-01-28T00:12:38.713Z,98702.52
2019-01-28T00:13:44.440Z,98710.16
2019-01-28T00:14:49.707Z,98697.83
2019-01-28T00:15:54.973Z,98701.64
2019-01-28T00:17:00.757Z,98705.48
2019-01-28T00:18:06.302Z,98722.47
2019-01-28T00:19:12.359Z,98702.92
2019-01-28T00:20:18.007Z,98708.05
2019-01-28T00:21:23.947Z,98709.74
2019-01-28T00:22:29.184Z,98706.75
2019-01-28T00:23:34.013Z,98706.34
2019-01-28T00:24:39.472Z,98708.02
2019-01-28T00:25:44.280Z,98708.88
2019-01-28T00:26:49.546Z,98701.65
2019-01-28T00:27:54.333Z,98705.89
2019-01-28T00:29:00.338Z,98698.69
2019-01-28T00:30:05.664Z,98702.94
2019-01-28T00:31:10.311Z,98707.61
2019-01-28T00:32:15.452Z,98707.18
2019-01-28T00:33:19.947Z,98709.31
2019-01-28T00:34:25.202Z,98711.02
2019-01-28T00:35:30.416Z,98698.68
2019-01-28T00:36:35.804Z,98711.02
2019-01-28T00:37:41.312Z,98701.66
2019-01-28T00:38:46.909Z,98700.80
2019-01-28T00:39:52.122Z,98691.02
2019-01-28T00:40:57.194Z,98702.92
2019-01-28T00:42:02.004Z,98703.77
2019-01-28T00:43:07.199Z,98705.47
2019-01-28T00:44:12.329Z,98704.63
2019-01-28T00:45:16.876Z,98698.24
2019-01-28T00:46:22.030Z,98694.00
2019-01-28T00:47:26.974Z,98697.82
2019-01-28T00:48:31.491Z,98694.84
2019-01-28T00:49:37.175Z,98690.19
2019-01-28T00:50:42.826Z,98691.44
2019-01-28T00:51:47.811Z,98699.09
2019-01-28T00:52:52.555Z,98691.88
2019-01-28T00:53:57.346Z,98691.88
2019-01-28T00:55:02.543Z,98691.47
2019-01-28T00:56:07.334Z,98687.63
2019-01-28T00:57:12.463Z,98692.30
2019-01-28T00:58:17.327Z,98690.60
2019-01-28T00:59:22.845Z,98678.28
2019-01-28T01:00:27.981Z,98683.36
2019-01-28T01:01:32.869Z,98686.36
2019-01-28T01:02:37.638Z,98695.27
2019-01-28T01:03:42.887Z,98690.17
2019-01-28T01:04:47.959Z,98678.71
2019-01-28T01:05:53.169Z,98679.55
2019-01-28T01:06:58.723Z,98680.83
2019-01-28T01:08:03.484Z,98683.37
2019-01-28T01:09:09.425Z,98688.48
2019-01-28T01:10:14.468Z,98679.54
2019-01-28T01:11:19.642Z,98681.67
2019-01-28T01:12:24.852Z,98679.55
2019-01-28T01:13:29.662Z,98685.94
2019-01-28T01:14:34.571Z,98679.14
2019-01-28T01:15:39.975Z,98678.25
2019-01-28T01:16:44.805Z,98692.30
2019-01-28T01:17:50.433Z,98686.77
2019-01-28T01:18:55.958Z,98688.46
2019-01-28T01:20:01.144Z,98671.91
2019-01-28T01:21:05.958Z,98680.39
2019-01-28T01:22:10.789Z,98674.89
2019-01-28T01:23:16.419Z,98684.24
2019-01-28T01:24:20.935Z,98673.60
2019-01-28T01:25:25.714Z,98696.57
2019-01-28T01:26:30.870Z,98673.59
2019-01-28T01:27:36.333Z,98678.28
2019-01-28T01:28:41.826Z,98680.41
2019-01-28T01:29:48.523Z,98674.46
2019-01-28T01:30:53.315Z,98679.57
2019-01-28T01:31:58.944Z,98685.08
2019-01-28T01:33:04.437Z,98676.16
2019-01-28T01:34:09.843Z,98676.58
2019-01-28T01:35:14.329Z,98682.11
2019-01-28T01:36:19.511Z,98677.00
2019-01-28T01:37:24.314Z,98684.23
2019-01-28T01:38:30.215Z,98674.87
2019-01-28T01:39:35.447Z,98672.34
2019-01-28T01:40:40.972Z,98678.27
2019-01-28T01:41:46.515Z,98675.73
2019-01-28T01:42:51.311Z,98672.33
2019-01-28T01:43:56.172Z,98677.02
2019-01-28T01:45:01.291Z,98665.09
2019-01-28T01:46:06.827Z,98680.83
2019-01-28T01:47:11.583Z,98675.73
2019-01-28T01:48:17.138Z,98678.28
2019-01-28T01:49:22.128Z,98670.21
2019-01-28T01:50:27.261Z,98686.34
2019-01-28T01:51:33.081Z,98659.58
2019-01-28T01:52:38.278Z,98679.55
2019-01-28T01:53:43.430Z,98661.27
2019-01-28T01:54:48.941Z,98673.16
2019-01-28T01:55:54.099Z,98668.91
2019-01-28T01:56:59.204Z,98663.84
2019-01-28T01:58:04.544Z,98660.00
2019-01-28T01:59:09.809Z,98652.36
2019-01-28T02:00:16.798Z,98651.92
2019-01-28T02:01:21.589Z,98650.23
2019-01-28T02:02:33.310Z,98660.84
2019-01-28T02:03:33.985Z,98651.07
2019-01-28T02:04:39.232Z,98657.88
2019-01-28T02:05:44.759Z,98656.16
2019-01-28T02:06:49.250Z,98643.86
2019-01-28T02:07:54.381Z,98644.27
2019-01-28T02:08:59.607Z,98633.22
2019-01-28T02:10:04.307Z,98637.05
2019-01-28T02:11:09.108Z,98633.64
2019-01-28T02:12:14.803Z,98640.47
2019-01-28T02:13:19.755Z,98637.06
2019-01-28T02:14:25.377Z,98646.41
2019-01-28T02:15:30.351Z,98637.48
2019-01-28T02:16:35.179Z,98640.47
2019-01-28T02:17:40.438Z,98635.78
2019-01-28T02:18:44.966Z,98635.34
2019-01-28T02:19:49.796Z,98628.56
2019-01-28T02:20:54.346Z,98634.91
2019-01-28T02:21:59.614Z,98628.15
2019-01-28T02:23:04.262Z,98632.80
2019-01-28T02:24:10.298Z,98622.20
2019-01-28T02:25:15.539Z,98626.42
2019-01-28T02:26:20.385Z,98615.39
2019-01-28T02:27:25.808Z,98614.95
2019-01-28T02:28:31.429Z,98621.31
2019-01-28T02:29:36.810Z,98621.34
2019-01-28T02:30:41.792Z,98616.25
2019-01-28T02:31:46.658Z,98614.11
2019-01-28T02:32:52.022Z,98617.95
2019-01-28T02:33:57.934Z,98617.50
2019-01-28T02:35:02.443Z,98612.41
2019-01-28T02:36:07.522Z,98610.28
2019-01-28T02:37:12.702Z,98611.99
2019-01-28T02:38:18.873Z,98607.73
2019-01-28T02:39:24.151Z,98600.09
2019-01-28T02:40:29.005Z,98603.48
2019-01-28T02:41:34.313Z,98599.66
2019-01-28T02:42:39.167Z,98604.33
2019-01-28T02:43:44.282Z,98596.70
2019-01-28T02:44:50.402Z,98600.51
2019-01-28T02:45:55.604Z,98597.13
2019-01-28T02:47:00.486Z,98581.39
2019-01-28T02:48:05.294Z,98578.42
2019-01-28T02:49:10.124Z,98583.08
2019-01-28T02:50:17.083Z,98601.36
2019-01-28T02:51:22.361Z,98580.55
2019-01-28T02:52:27.888Z,98584.77
2019-01-28T02:53:33.667Z,98575.87
2019-01-28T02:54:38.559Z,98580.12
2019-01-28T02:55:43.361Z,98580.97
2019-01-28T02:56:48.992Z,98583.09
2019-01-28T02:57:53.590Z,98594.98
2019-01-28T02:58:58.735Z,98578.41
2019-01-28T03:00:04.595Z,98576.30
2019-01-28T03:01:10.729Z,98576.31
2019-01-28T03:02:15.867Z,98574.61
2019-01-28T03:03:20.788Z,98570.78
2019-01-28T03:04:25.851Z,98563.14
2019-01-28T03:05:30.738Z,98567.37
2019-01-28T03:06:36.027Z,98571.62
2019-01-28T03:07:40.514Z,98565.27
2019-01-28T03:08:45.608Z,98566.97
2019-01-28T03:09:51.137Z,98555.94
2019-01-28T03:10:55.676Z,98555.50
2019-01-28T03:12:01.192Z,98562.30
2019-01-28T03:13:05.990Z,98561.42
2019-01-28T03:14:10.508Z,98542.33
2019-01-28T03:15:15.456Z,98551.24
2019-01-28T03:16:20.277Z,98544.89
2019-01-28T03:17:25.059Z,98553.79
2019-01-28T03:18:30.248Z,98560.17
2019-01-28T03:19:35.028Z,98576.30
2019-01-28T03:20:39.523Z,98550.84
2019-01-28T03:21:44.661Z,98560.15
2019-01-28T03:22:49.898Z,98557.20
2019-01-28T03:23:55.444Z,98546.58
2019-01-28T03:25:00.909Z,98546.14
2019-01-28T03:26:06.929Z,98545.73
2019-01-28T03:27:13.141Z,98553.80
2019-01-28T03:28:17.960Z,98545.72
2019-01-28T03:29:23.393Z,98543.59
2019-01-28T03:30:28.161Z,98539.77
2019-01-28T03:31:32.948Z,98542.31
2019-01-28T03:32:37.735Z,98546.99
2019-01-28T03:33:42.920Z,98558.45
2019-01-28T03:34:47.519Z,98552.09
2019-01-28T03:35:52.612Z,98552.95
2019-01-28T03:36:57.864Z,98553.37
2019-01-28T03:38:02.672Z,98547.84
2019-01-28T03:39:08.889Z,98549.55
2019-01-28T03:40:15.955Z,98546.56
2019-01-28T03:41:20.758Z,98551.67
2019-01-28T03:42:26.483Z,98556.75
2019-01-28T03:43:31.420Z,98549.95
2019-01-28T03:44:36.413Z,98558.88
2019-01-28T03:45:41.344Z,98554.64
2019-01-28T03:46:46.124Z,98544.44
2019-01-28T03:47:51.272Z,98559.30
2019-01-28T03:48:56.079Z,98555.05
2019-01-28T03:50:01.023Z,98552.48
2019-01-28T03:51:05.851Z,98563.95
2019-01-28T03:52:12.295Z,98554.18
2019-01-28T03:53:17.593Z,98549.11
2019-01-28T03:54:22.094Z,98554.61
2019-01-28T03:55:26.907Z,98557.18
2019-01-28T03:56:31.996Z,98556.31
2019-01-28T03:57:37.357Z,98547.83
2019-01-28T03:58:43.702Z,98554.19
2019-01-28T03:59:48.631Z,98551.22
2019-01-28T04:00:53.404Z,98549.11
2019-01-28T04:01:58.541Z,98563.11
2019-01-28T04:03:03.999Z,98549.55
2019-01-28T04:04:08.808Z,98555.91
2019-01-28T04:05:13.618Z,98545.71
2019-01-28T04:06:18.110Z,98532.99
2019-01-28T04:07:22.858Z,98544.45
2019-01-28T04:08:27.614Z,98562.27
2019-01-28T04:09:32.446Z,98529.14
2019-01-28T04:10:37.537Z,98552.50
2019-01-28T04:11:42.291Z,98551.62
2019-01-28T04:12:47.519Z,98563.11
2019-01-28T04:13:52.028Z,98546.98
2019-01-28T04:14:57.469Z,98546.14
2019-01-28T04:16:03.100Z,98545.28
2019-01-28T04:17:08.693Z,98551.23
2019-01-28T04:18:13.845Z,98555.47
2019-01-28T04:19:18.748Z,98552.50
2019-01-28T04:20:25.780Z,98546.14
2019-01-28T04:21:30.632Z,98558.87
2019-01-28T04:22:36.138Z,98546.14
2019-01-28T04:23:41.292Z,98553.79
2019-01-28T04:24:46.066Z,98551.66
2019-01-28T04:25:51.332Z,98550.80
2019-01-28T04:26:56.414Z,98550.80
2019-01-28T04:28:00.918Z,98551.22
2019-01-28T04:29:05.699Z,98549.96
2019-01-28T04:30:22.162Z,98543.16
2019-01-28T04:31:28.209Z,98548.69
2019-01-28T04:32:33.235Z,98550.35
2019-01-28T04:33:40.447Z,98553.34
2019-01-28T04:34:45.542Z,98543.59
2019-01-28T04:35:51.103Z,98545.28
2019-01-28T04:36:56.521Z,98549.95
2019-01-28T04:38:01.656Z,98548.25
2019-01-28T04:39:08.683Z,98549.09
2019-01-28T04:40:13.276Z,98552.49
2019-01-28T04:41:17.916Z,98546.55
2019-01-28T04:42:22.621Z,98539.77
2019-01-28T04:43:27.918Z,98543.59
2019-01-28T04:44:32.431Z,98545.69
2019-01-28T04:45:37.832Z,98542.30
2019-01-28T04:46:42.303Z,98539.76
2019-01-28T04:47:47.122Z,98538.50
2019-01-28T04:48:52.239Z,98541.02
2019-01-28T04:49:56.990Z,98530.41
2019-01-28T04:51:02.110Z,98537.63
2019-01-28T04:52:06.874Z,98536.34
2019-01-28T04:53:11.684Z,98535.93
2019-01-28T04:54:16.888Z,98546.11
2019-01-28T04:55:21.685Z,98540.17
2019-01-28T04:56:26.256Z,98545.71
2019-01-28T04:57:31.377Z,98544.01
2019-01-28T04:58:36.426Z,98554.20
2019-01-28T04:59:41.226Z,98532.53
2019-01-28T05:00:46.372Z,98539.75
2019-01-28T05:01:51.535Z,98551.66
2019-01-28T05:02:56.354Z,98544.44
2019-01-28T05:04:01.229Z,98548.69
2019-01-28T05:05:06.083Z,98537.20
2019-01-28T05:06:11.687Z,98547.39
2019-01-28T05:07:16.560Z,98545.27
2019-01-28T05:08:21.848Z,98536.36
2019-01-28T05:09:26.951Z,98536.36
2019-01-28T05:10:31.415Z,98535.50
2019-01-28T05:11:36.608Z,98537.64
2019-01-28T05:12:42.147Z,98547.00
2019-01-28T05:13:46.624Z,98543.16
2019-01-28T05:14:51.495Z,98549.50
2019-01-28T05:15:56.617Z,98546.14
2019-01-28T05:17:01.437Z,98535.52
2019-01-28T05:18:06.884Z,98538.92
2019-01-28T05:19:12.305Z,98542.73
2019-01-28T05:20:18.213Z,98535.53
2019-01-28T05:21:23.356Z,98544.86
2019-01-28T05:22:27.846Z,98542.76
2019-01-28T05:23:33.680Z,98534.66
2019-01-28T05:24:38.558Z,98542.75
2019-01-28T05:25:43.357Z,98539.36
2019-01-28T05:26:48.142Z,98545.72
2019-01-28T05:27:53.308Z,98538.91
2019-01-28T05:28:58.116Z,98546.13
2019-01-28T05:30:03.598Z,98536.36
2019-01-28T05:31:08.737Z,98536.80
2019-01-28T05:32:13.736Z,98542.30
2019-01-28T05:33:19.231Z,98536.36
2019-01-28T05:34:24.382Z,98541.88
2019-01-28T05:35:29.129Z,98541.44
2019-01-28T05:36:33.934Z,98547.39
2019-01-28T05:37:39.152Z,98547.40
2019-01-28T05:38:44.565Z,98542.73
2019-01-28T05:39:50.039Z,98539.77
2019-01-28T05:40:54.798Z,98544.00
2019-01-28T05:41:59.597Z,98536.38
2019-01-28T05:43:04.625Z,98541.05
2019-01-28T05:44:10.088Z,98544.84
2019-01-28T05:45:15.863Z,98545.69
2019-01-28T05:46:21.775Z,98534.68
2019-01-28T05:47:26.658Z,98535.51
2019-01-28T05:48:32.500Z,98533.38
2019-01-28T05:49:37.599Z,98538.48
2019-01-28T05:50:42.074Z,98537.21
2019-01-28T05:51:47.202Z,98536.78
2019-01-28T05:52:52.577Z,98549.08
2019-01-28T05:53:57.354Z,98550.79
2019-01-28T05:55:02.239Z,98548.26
2019-01-28T05:56:08.551Z,98541.88
2019-01-28T05:57:13.259Z,98543.56
2019-01-28T05:58:18.384Z,98542.28
2019-01-28T05:59:23.475Z,98546.95
2019-01-28T06:00:34.856Z,98544.41
2019-01-28T06:01:39.802Z,98546.95
2019-01-28T06:02:45.425Z,98554.14
2019-01-28T06:03:50.216Z,98550.76
2019-01-28T06:04:55.373Z,98555.02
2019-01-28T06:06:00.948Z,98557.59
2019-01-28T06:07:05.929Z,98555.48
2019-01-28T06:08:11.206Z,98552.09
2019-01-28T06:09:15.700Z,98551.66
2019-01-28T06:10:20.183Z,98562.72
2019-01-28T06:11:25.611Z,98557.62
2019-01-28T06:12:31.148Z,98560.18
2019-01-28T06:13:36.318Z,98554.65
2019-01-28T06:14:41.381Z,98559.73
2019-01-28T06:15:46.531Z,98571.17
2019-01-28T06:16:51.663Z,98551.65
2019-01-28T06:17:56.285Z,98560.15
2019-01-28T06:19:01.067Z,98564.36
2019-01-28T06:20:07.019Z,98559.69
2019-01-28T06:21:12.531Z,98568.59
2019-01-28T06:22:17.650Z,98570.30
2019-01-28T06:23:22.881Z,98559.69
2019-01-28T06:24:28.396Z,98561.41
2019-01-28T06:25:33.518Z,98557.59
2019-01-28T06:26:38.634Z,98574.55
2019-01-28T06:27:43.872Z,98568.59
2019-01-28T06:28:49.009Z,98571.59
2019-01-28T06:29:54.573Z,98563.06
2019-01-28T06:30:59.324Z,98563.91
2019-01-28T06:32:04.448Z,98560.08
2019-01-28T06:33:09.578Z,98568.14
2019-01-28T06:34:14.765Z,98569.41
2019-01-28T06:35:19.559Z,98563.05
2019-01-28T06:36:25.073Z,98564.77
2019-01-28T06:37:30.197Z,98567.71
2019-01-28T06:38:34.953Z,98571.13
2019-01-28T06:39:39.715Z,98575.80
2019-01-28T06:40:44.487Z,98574.92
2019-01-28T06:41:49.564Z,98576.62
2019-01-28T06:42:54.362Z,98574.95
2019-01-28T06:44:02.725Z,98569.42
2019-01-28T06:45:07.827Z,98580.88
2019-01-28T06:46:13.302Z,98577.08
2019-01-28T06:47:18.119Z,98583.86
2019-01-28T06:48:22.906Z,98583.00
2019-01-28T06:49:27.774Z,98590.64
2019-01-28T06:50:32.250Z,98589.78
2019-01-28T06:51:37.708Z,98587.26
2019-01-28T06:52:42.826Z,98594.03
2019-01-28T06:53:48.553Z,98590.20
2019-01-28T06:54:53.648Z,98597.87
2019-01-28T06:55:58.926Z,98589.80
2019-01-28T06:57:03.717Z,98596.59
2019-01-28T06:58:08.326Z,98599.14
2019-01-28T06:59:13.744Z,98602.97
2019-01-28T07:00:21.527Z,98599.55
2019-01-28T07:01:26.303Z,98608.92
2019-01-28T07:02:31.179Z,98595.33
2019-01-28T07:03:36.325Z,98600.00
2019-01-28T07:04:40.805Z,98609.34
2019-01-28T07:05:45.318Z,98607.20
2019-01-28T07:06:50.098Z,98608.45
2019-01-28T07:07:55.199Z,98610.17
2019-01-28T07:08:59.962Z,98605.06
2019-01-28T07:10:04.598Z,98607.61
2019-01-28T07:11:10.169Z,98602.95
2019-01-28T07:12:15.425Z,98608.45
2019-01-28T07:13:20.977Z,98613.13
2019-01-28T07:14:25.579Z,98619.48
2019-01-28T07:15:34.032Z,98618.22
2019-01-28T07:17:30.306Z,98623.73
2019-01-28T07:18:43.841Z,98624.17
2019-01-28T07:19:53.413Z,98617.36
2019-01-28T07:20:59.932Z,98624.98
2019-01-28T07:22:05.443Z,98619.90
2019-01-28T07:23:16.333Z,98626.69
2019-01-28T07:24:21.867Z,98622.04
2019-01-28T07:25:27.005Z,98626.25
2019-01-28T07:26:31.979Z,98627.11
2019-01-28T07:27:36.978Z,98628.81
2019-01-28T07:28:41.788Z,98637.71
2019-01-28T07:29:47.550Z,98636.45
2019-01-28T07:30:58.618Z,98633.48
2019-01-28T07:32:03.025Z,98643.67
2019-01-28T07:33:11.063Z,98647.04
2019-01-28T07:34:18.431Z,98633.88
2019-01-28T07:35:23.817Z,98641.97
2019-01-28T07:36:30.387Z,98645.81
2019-01-28T07:37:35.286Z,98645.34
2019-01-28T07:38:39.967Z,98650.46
2019-01-28T07:39:45.224Z,98642.37
2019-01-28T07:40:55.043Z,98653.88
2019-01-28T07:42:00.024Z,98648.77
2019-01-28T07:43:05.222Z,98639.45
2019-01-28T07:44:10.302Z,98643.67
2019-01-28T07:45:18.118Z,98648.31
2019-01-28T07:46:22.901Z,98651.70
2019-01-28T07:47:28.015Z,98651.69
2019-01-28T07:48:33.545Z,98649.95
2019-01-28T07:49:38.325Z,98655.08
2019-01-28T07:50:43.136Z,98665.25
2019-01-28T07:51:48.619Z,98652.55
2019-01-28T07:52:53.794Z,98653.41
2019-01-28T07:53:58.950Z,98653.84
2019-01-28T07:55:04.132Z,98651.69
2019-01-28T07:56:09.905Z,98650.00
2019-01-28T07:57:15.504Z,98657.24
2019-01-28T07:58:20.256Z,98656.80
2019-01-28T07:59:24.758Z,98648.31
2019-01-28T08:00:30.870Z,98658.12
2019-01-28T08:01:35.664Z,98661.08
2019-01-28T08:02:40.478Z,98659.38
2019-01-28T08:03:45.223Z,98667.89
2019-01-28T08:04:50.112Z,98658.55
2019-01-28T08:05:55.232Z,98659.42
2019-01-28T08:06:59.795Z,98659.84
2019-01-28T08:08:05.327Z,98663.23
2019-01-28T08:09:10.254Z,98666.20
2019-01-28T08:10:16.307Z,98664.92
2019-01-28T08:11:21.049Z,98670.83
2019-01-28T08:12:25.871Z,98671.29
2019-01-28T08:13:31.014Z,98674.65
2019-01-28T08:14:36.081Z,98667.88
2019-01-28T08:15:41.184Z,98674.27
2019-01-28T08:16:45.660Z,98664.92
2019-01-28T08:17:50.494Z,98673.43
2019-01-28T08:18:55.620Z,98677.19
2019-01-28T08:20:01.010Z,98668.33
2019-01-28T08:21:05.799Z,98673.84
2019-01-28T08:22:10.274Z,98679.79
2019-01-28T08:23:15.293Z,98674.70
2019-01-28T08:24:20.801Z,98681.48
2019-01-28T08:25:25.749Z,98682.34
2019-01-28T08:26:30.851Z,98688.28
2019-01-28T08:27:36.007Z,98675.98
2019-01-28T08:28:41.114Z,98691.70
2019-01-28T08:29:46.260Z,98696.79
2019-01-28T08:30:51.328Z,98695.06
2019-01-28T08:31:56.632Z,98691.70
2019-01-28T08:33:02.982Z,98701.05
2019-01-28T08:34:07.939Z,98696.39
2019-01-28T08:35:12.433Z,98693.01
2019-01-28T08:36:17.566Z,98693.45
2019-01-28T08:37:22.048Z,98700.64
2019-01-28T08:38:26.875Z,98701.09
2019-01-28T08:39:31.973Z,98695.16
2019-01-28T08:40:36.719Z,98696.83
2019-01-28T08:41:41.514Z,98694.71
2019-01-28T08:42:46.414Z,98695.59
2019-01-28T08:43:51.596Z,98701.52
2019-01-28T08:44:56.818Z,98696.82
2019-01-28T08:46:01.571Z,98707.47
2019-01-28T08:47:06.066Z,98706.20
2019-01-28T08:48:18.013Z,98710.84
2019-01-28T08:49:18.531Z,98700.67
2019-01-28T08:50:24.388Z,98704.91
2019-01-28T08:51:28.897Z,98708.77
2019-01-28T08:52:33.400Z,98708.76
2019-01-28T08:53:38.128Z,98710.01
2019-01-28T08:54:42.881Z,98704.08
2019-01-28T08:55:47.473Z,98713.87
2019-01-28T08:56:52.259Z,98721.50
2019-01-28T08:57:57.340Z,98715.14
2019-01-28T08:59:02.408Z,98721.53
2019-01-28T09:00:10.085Z,98724.06
2019-01-28T09:01:15.229Z,98735.10
2019-01-28T09:02:20.511Z,98731.72
2019-01-28T09:03:25.129Z,98721.10
2019-01-28T09:04:29.599Z,98726.20
2019-01-28T09:05:34.419Z,98740.62
2019-01-28T09:06:39.273Z,98730.02
2019-01-28T09:07:44.468Z,98730.90
2019-01-28T09:08:49.218Z,98741.50
2019-01-28T09:09:53.974Z,98734.28
2019-01-28T09:10:59.223Z,98733.02
2019-01-28T09:12:04.160Z,98742.78
2019-01-28T09:13:09.497Z,98744.48
2019-01-28T09:14:14.351Z,98752.55
2019-01-28T09:15:20.152Z,98744.92
2019-01-28T09:16:25.241Z,98747.91
2019-01-28T09:17:30.051Z,98750.47
2019-01-28T09:18:35.627Z,98754.31
2019-01-28T09:19:40.473Z,98745.79
2019-01-28T09:20:45.224Z,98759.83
2019-01-28T09:21:49.693Z,98758.56
2019-01-28T09:22:55.168Z,98763.64
2019-01-28T09:24:00.739Z,98761.97
2019-01-28T09:25:05.808Z,98767.92
2019-01-28T09:26:10.550Z,98771.75
2019-01-28T09:27:15.396Z,98770.05
2019-01-28T09:28:20.640Z,98771.77
2019-01-28T09:29:26.132Z,98776.42
2019-01-28T09:30:31.905Z,98779.41
2019-01-28T09:31:36.671Z,98774.35
2019-01-28T09:32:41.441Z,98785.81
2019-01-28T09:33:45.946Z,98787.94
2019-01-28T09:34:50.701Z,98789.21
2019-01-28T09:35:55.462Z,98790.48
2019-01-28T09:37:00.602Z,98788.80
2019-01-28T09:38:05.109Z,98793.47
2019-01-28T09:39:10.001Z,98796.04
2019-01-28T09:40:16.655Z,98795.61
2019-01-28T09:41:21.919Z,98802.41
2019-01-28T09:42:26.401Z,98799.85
2019-01-28T09:43:31.182Z,98809.23
2019-01-28T09:44:35.790Z,98804.95
2019-01-28T09:45:42.760Z,98817.74
2019-01-28T09:46:47.523Z,98809.25
2019-01-28T09:47:52.534Z,98815.62
2019-01-28T09:48:57.347Z,98820.73
2019-01-28T09:50:01.803Z,98822.02
2019-01-28T09:51:06.549Z,98825.84
2019-01-28T09:52:11.302Z,98827.96
2019-01-28T09:53:16.231Z,98822.02
2019-01-28T09:54:21.358Z,98833.93
2019-01-28T09:55:26.118Z,98837.32
2019-01-28T09:56:31.294Z,98832.23
2019-01-28T09:57:36.459Z,98838.59
2019-01-28T09:58:41.858Z,98842.42
2019-01-28T09:59:46.653Z,98837.77
2019-01-28T10:00:52.186Z,98837.33
2019-01-28T10:01:57.038Z,98848.83
2019-01-28T10:03:01.517Z,98843.27
2019-01-28T10:04:06.650Z,98851.34
2019-01-28T10:05:11.414Z,98854.78
2019-01-28T10:06:17.031Z,98853.48
2019-01-28T10:07:22.536Z,98855.61
2019-01-28T10:08:27.389Z,98861.16
2019-01-28T10:09:32.648Z,98859.02
2019-01-28T10:10:37.761Z,98861.98
2019-01-28T10:11:42.633Z,98857.31
2019-01-28T10:12:47.385Z,98864.11
2019-01-28T10:13:52.154Z,98861.16
2019-01-28T10:14:56.907Z,98872.20
2019-01-28T10:16:01.406Z,98881.15
2019-01-28T10:17:06.270Z,98871.35
2019-01-28T10:18:11.023Z,98873.91
2019-01-28T10:19:16.668Z,98880.31
2019-01-28T10:20:26.928Z,98888.38
2019-01-28T10:21:31.671Z,98888.80
2019-01-28T10:22:36.142Z,98893.93
2019-01-28T10:23:41.276Z,98896.47
2019-01-28T10:24:46.829Z,98900.72
2019-01-28T10:25:51.911Z,98900.71
2019-01-28T10:26:57.057Z,98904.56
2019-01-28T10:28:01.647Z,98913.91
2019-01-28T10:29:06.134Z,98905.84
2019-01-28T10:30:12.141Z,98906.24
2019-01-28T10:31:16.959Z,98917.72
2019-01-28T10:32:21.732Z,98915.62
2019-01-28T10:33:26.569Z,98914.75
2019-01-28T10:34:31.305Z,98924.09
2019-01-28T10:35:36.067Z,98920.70
2019-01-28T10:36:40.843Z,98924.09
2019-01-28T10:37:46.013Z,98924.53
2019-01-28T10:38:50.786Z,98926.66
2019-01-28T10:39:55.648Z,98927.92
2019-01-28T10:41:00.848Z,98934.30
2019-01-28T10:42:09.809Z,98938.55
2019-01-28T10:43:12.294Z,98944.11
2019-01-28T10:44:17.057Z,98936.87
2019-01-28T10:45:21.839Z,98943.23
2019-01-28T10:46:26.751Z,98941.97
2019-01-28T10:47:31.354Z,98944.53
2019-01-28T10:48:36.123Z,98948.33
2019-01-28T10:49:41.672Z,98959.38
2019-01-28T10:50:46.770Z,98953.86
2019-01-28T10:51:51.563Z,98958.13
2019-01-28T10:52:56.383Z,98958.56
2019-01-28T10:54:01.150Z,98964.09
2019-01-28T10:55:06.002Z,98966.20
2019-01-28T10:56:11.118Z,98964.92
2019-01-28T10:57:15.939Z,98969.20
2019-01-28T10:58:21.172Z,98971.73
2019-01-28T10:59:26.837Z,98976.83
2019-01-28T11:00:36.983Z,98979.37
2019-01-28T11:01:41.760Z,98973.84
2019-01-28T11:02:46.737Z,98979.82
2019-01-28T11:03:51.224Z,98982.38
2019-01-28T11:04:55.964Z,98982.80
2019-01-28T11:06:01.177Z,98985.33
2019-01-28T11:07:05.965Z,98988.75
2019-01-28T11:08:10.702Z,98989.59
2019-01-28T11:09:15.922Z,98991.72
2019-01-28T11:10:21.205Z,98996.43
2019-01-28T11:11:26.466Z,98997.70
2019-01-28T11:12:31.637Z,99003.68
2019-01-28T11:13:36.720Z,98999.86
2019-01-28T11:14:41.220Z,99008.80
2019-01-28T11:15:46.183Z,99007.06
2019-01-28T11:16:51.338Z,99009.20
2019-01-28T11:17:56.177Z,99005.36
2019-01-28T11:19:01.036Z,99018.16
2019-01-28T11:20:06.198Z,99008.80
2019-01-28T11:21:11.335Z,99012.65
2019-01-28T11:22:15.860Z,99013.47
2019-01-28T11:23:20.689Z,99014.78
2019-01-28T11:24:25.543Z,99022.00
2019-01-28T11:25:32.002Z,99019.03
2019-01-28T11:26:36.874Z,99018.59
2019-01-28T11:27:41.331Z,99020.72
2019-01-28T11:28:46.243Z,99030.52
2019-01-28T11:29:51.322Z,99023.70
2019-01-28T11:31:04.586Z,99030.90
2019-01-28T11:32:09.552Z,99030.52
2019-01-28T11:33:14.970Z,99035.63
2019-01-28T11:34:20.069Z,99037.34
2019-01-28T11:35:25.000Z,99040.73
2019-01-28T11:36:29.899Z,99031.80
2019-01-28T11:37:34.725Z,99044.53
2019-01-28T11:38:39.793Z,99050.92
2019-01-28T11:39:44.657Z,99054.33
2019-01-28T11:40:49.579Z,99045.81
2019-01-28T11:41:54.980Z,99055.57
2019-01-28T11:43:00.065Z,99055.57
2019-01-28T11:44:05.637Z,99056.47
2019-01-28T11:45:18.240Z,99047.94
2019-01-28T11:46:22.857Z,99054.75
2019-01-28T11:47:28.103Z,99059.03
2019-01-28T11:48:33.068Z,99064.55
2019-01-28T11:49:37.853Z,99059.00
2019-01-28T11:50:42.663Z,99070.50
2019-01-28T11:51:47.951Z,99061.56
2019-01-28T11:52:53.812Z,99063.69
2019-01-28T11:53:59.134Z,99079.02
2019-01-28T11:55:04.208Z,99078.19
2019-01-28T11:56:09.480Z,99081.20
2019-01-28T11:57:14.614Z,99080.77
2019-01-28T11:58:19.404Z,99073.95
2019-01-28T11:59:24.938Z,99086.29
2019-01-28T12:00:38.591Z,99071.41
2019-01-28T12:01:44.134Z,99088.41
2019-01-28T12:02:49.202Z,99085.86
2019-01-28T12:03:53.985Z,99090.98
2019-01-28T12:04:59.239Z,99088.42
2019-01-28T12:06:03.989Z,99091.39
2019-01-28T12:07:09.318Z,99096.13
2019-01-28T12:08:14.887Z,99089.72
2019-01-28T12:09:19.389Z,99096.91
2019-01-28T12:10:24.898Z,99102.88
2019-01-28T12:11:29.844Z,99108.44
2019-01-28T12:12:35.024Z,99107.13
2019-01-28T12:13:40.249Z,99109.67
2019-01-28T12:14:45.059Z,99124.15
2019-01-28T12:15:49.540Z,99118.20
2019-01-28T12:16:54.747Z,99119.88
2019-01-28T12:18:00.220Z,99123.30
2019-01-28T12:19:05.012Z,99119.48
2019-01-28T12:20:10.443Z,99124.59
2019-01-28T12:21:15.266Z,99126.27
2019-01-28T12:22:20.330Z,99130.08
2019-01-28T12:23:24.836Z,99134.73
2019-01-28T12:24:30.376Z,99140.70
2019-01-28T12:25:35.897Z,99136.86
2019-01-28T12:26:41.062Z,99144.48
2019-01-28T12:27:45.544Z,99133.44
2019-01-28T12:28:50.322Z,99145.77
2019-01-28T12:29:54.791Z,99146.16
2019-01-28T12:31:00.049Z,99145.77
2019-01-28T12:32:04.811Z,99153.42
2019-01-28T12:33:09.605Z,99153.02
2019-01-28T12:34:16.703Z,99152.16
2019-01-28T12:35:22.175Z,99155.59
2019-01-28T12:36:26.916Z,99167.95
2019-01-28T12:37:32.064Z,99161.53
2019-01-28T12:38:36.929Z,99171.32
2019-01-28T12:39:42.164Z,99169.61
2019-01-28T12:40:46.976Z,99169.19
2019-01-28T12:41:51.737Z,99171.28
2019-01-28T12:42:56.222Z,99173.88
2019-01-28T12:44:01.428Z,99176.02
2019-01-28T12:45:07.390Z,99181.52
2019-01-28T12:46:12.518Z,99181.11
2019-01-28T12:47:17.778Z,99181.94